createdAt,value
2023-03-29T00:00:36.643Z,43.23
2023-03-29T00:01:41.986Z,43.09
2023-03-29T00:02:48.274Z,43.30
2023-03-29T00:03:51.811Z,43.53
2023-03-29T00:04:54.638Z,43.15
2023-03-29T00:06:02.997Z,43.29
2023-03-29T00:07:05.949Z,43.35
2023-03-29T00:08:08.138Z,43.53
2023-03-29T00:09:11.291Z,43.28
2023-03-29T00:10:13.349Z,43.49
2023-03-29T00:11:16.103Z,43.33
2023-03-29T00:12:17.750Z,43.62
2023-03-29T00:13:20.425Z,43.80
2023-03-29T00:14:23.069Z,43.66
2023-03-29T00:15:25.060Z,43.23
2023-03-29T00:16:28.249Z,43.91
2023-03-29T00:17:30.230Z,43.43
2023-03-29T00:18:34.376Z,43.89
2023-03-29T00:19:36.739Z,43.76
2023-03-29T00:20:39.418Z,43.49
2023-03-29T00:21:41.117Z,43.57
2023-03-29T00:22:46.652Z,43.76
2023-03-29T00:23:48.337Z,43.92
2023-03-29T00:24:54.087Z,43.90
2023-03-29T00:25:56.032Z,44.01
2023-03-29T00:26:58.754Z,43.61
2023-03-29T00:28:00.511Z,43.88
2023-03-29T00:29:03.240Z,43.99
2023-03-29T00:30:06.985Z,44.31
2023-03-29T00:31:11.706Z,44.59
2023-03-29T00:32:13.726Z,44.78
2023-03-29T00:33:16.391Z,44.37
2023-03-29T00:34:19.607Z,44.71
2023-03-29T00:35:22.337Z,44.71
2023-03-29T00:36:24.067Z,44.55
2023-03-29T00:37:26.884Z,44.80
2023-03-29T00:38:28.752Z,44.40
2023-03-29T00:39:32.039Z,44.58
2023-03-29T00:40:34.433Z,44.41
2023-03-29T00:41:37.214Z,44.32
2023-03-29T00:42:38.961Z,44.33
2023-03-29T00:43:56.413Z,44.46
2023-03-29T00:45:02.181Z,44.25
2023-03-29T00:46:05.367Z,44.37
2023-03-29T00:47:07.249Z,44.50
2023-03-29T00:48:12.259Z,44.65
2023-03-29T00:49:14.115Z,44.56
2023-03-29T00:50:22.296Z,44.49
2023-03-29T00:51:25.550Z,44.45
2023-03-29T00:52:30.235Z,44.18
2023-03-29T00:53:34.217Z,44.19
2023-03-29T00:54:37.917Z,44.34
2023-03-29T00:55:42.926Z,44.13
2023-03-29T00:56:47.464Z,44.06
2023-03-29T00:57:50.069Z,44.11
2023-03-29T00:58:55.191Z,43.99
2023-03-29T00:59:57.331Z,43.96
2023-03-29T01:01:03.225Z,43.65
2023-03-29T01:02:07.054Z,43.84
2023-03-29T01:03:13.686Z,43.92
2023-03-29T01:04:19.434Z,43.75
2023-03-29T01:05:29.486Z,44.14
2023-03-29T01:06:34.305Z,43.81
2023-03-29T01:07:42.219Z,43.84
2023-03-29T01:08:45.416Z,43.63
2023-03-29T01:10:00.732Z,43.75
2023-03-29T01:11:07.113Z,43.87
2023-03-29T01:12:12.334Z,43.88
2023-03-29T01:13:18.457Z,43.74
2023-03-29T01:14:26.533Z,43.72
2023-03-29T01:15:28.953Z,43.82
2023-03-29T01:16:33.001Z,43.79
2023-03-29T01:17:34.827Z,43.95
2023-03-29T01:18:37.664Z,43.75
2023-03-29T01:19:42.321Z,43.94
2023-03-29T01:20:57.861Z,43.87
2023-03-29T01:22:02.596Z,43.74
2023-03-29T01:23:17.312Z,43.70
2023-03-29T01:24:41.844Z,43.90
2023-03-29T01:25:48.960Z,43.79
2023-03-29T01:26:56.762Z,44.10
2023-03-29T01:28:02.675Z,43.65
2023-03-29T01:29:09.584Z,43.84
2023-03-29T01:30:14.116Z,43.88
2023-03-29T01:31:20.917Z,43.86
2023-03-29T01:32:26.989Z,43.79
2023-03-29T01:33:32.613Z,43.70
2023-03-29T01:34:38.367Z,43.72
2023-03-29T01:35:43.788Z,43.82
2023-03-29T01:36:50.106Z,43.71
2023-03-29T01:37:56.703Z,43.89
2023-03-29T01:38:59.874Z,43.79
2023-03-29T01:40:04.930Z,43.92
2023-03-29T01:41:07.938Z,43.83
2023-03-29T01:42:30.997Z,43.88
2023-03-29T01:43:37.199Z,43.60
2023-03-29T01:44:47.392Z,44.01
2023-03-29T01:45:54.766Z,44.10
2023-03-29T01:47:04.428Z,44.04
2023-03-29T01:48:10.494Z,44.08
2023-03-29T01:49:14.870Z,43.87
2023-03-29T01:50:20.435Z,43.94
2023-03-29T01:51:25.870Z,44.11
2023-03-29T01:52:33.015Z,44.13
2023-03-29T01:53:37.955Z,44.10
2023-03-29T01:54:44.575Z,44.28
2023-03-29T01:55:51.247Z,44.52
2023-03-29T01:56:54.468Z,44.20
2023-03-29T01:57:56.661Z,44.55
2023-03-29T01:59:05.144Z,44.43
2023-03-29T02:00:10.239Z,44.29
2023-03-29T02:01:17.667Z,44.72
2023-03-29T02:02:20.995Z,44.42
2023-03-29T02:03:26.619Z,44.45
2023-03-29T02:04:31.483Z,44.52
2023-03-29T02:05:34.917Z,44.11
2023-03-29T02:06:38.025Z,44.45
2023-03-29T02:07:41.973Z,44.68
2023-03-29T02:08:43.884Z,44.36
2023-03-29T02:09:48.862Z,44.68
2023-03-29T02:10:51.752Z,44.49
2023-03-29T02:11:54.980Z,44.50
2023-03-29T02:12:56.727Z,44.51
2023-03-29T02:14:00.793Z,44.24
2023-03-29T02:15:02.871Z,44.51
2023-03-29T02:16:12.131Z,44.45
2023-03-29T02:17:18.392Z,44.52
2023-03-29T02:18:21.429Z,44.57
2023-03-29T02:19:25.048Z,44.47
2023-03-29T02:20:31.793Z,44.24
2023-03-29T02:21:39.000Z,44.60
2023-03-29T02:22:48.914Z,44.52
2023-03-29T02:23:54.746Z,44.71
2023-03-29T02:24:59.393Z,44.67
2023-03-29T02:26:02.103Z,44.50
2023-03-29T02:27:05.444Z,44.75
2023-03-29T02:28:07.708Z,44.73
2023-03-29T02:29:12.246Z,44.81
2023-03-29T02:30:17.114Z,44.81
2023-03-29T02:31:23.539Z,44.37
2023-03-29T02:32:27.478Z,44.53
2023-03-29T02:33:33.296Z,44.93
2023-03-29T02:34:37.641Z,44.72
2023-03-29T02:35:45.832Z,44.92
2023-03-29T02:36:50.467Z,44.77
2023-03-29T02:37:54.797Z,44.60
2023-03-29T02:38:58.853Z,44.78
2023-03-29T02:40:01.762Z,45.26
2023-03-29T02:41:04.350Z,45.28
2023-03-29T02:42:07.678Z,45.05
2023-03-29T02:43:09.977Z,45.20
2023-03-29T02:44:15.728Z,45.14
2023-03-29T02:45:18.487Z,44.94
2023-03-29T02:46:22.078Z,44.99
2023-03-29T02:47:29.107Z,45.14
2023-03-29T02:48:32.622Z,45.09
2023-03-29T02:49:34.535Z,45.21
2023-03-29T02:50:38.469Z,45.07
2023-03-29T02:51:41.203Z,45.37
2023-03-29T02:52:47.124Z,45.12
2023-03-29T02:53:52.558Z,45.56
2023-03-29T02:54:56.004Z,45.71
2023-03-29T02:56:02.251Z,45.15
2023-03-29T02:57:06.488Z,45.35
2023-03-29T02:58:09.329Z,45.73
2023-03-29T02:59:12.070Z,45.86
2023-03-29T03:00:20.171Z,45.34
2023-03-29T03:01:22.984Z,45.36
2023-03-29T03:02:27.808Z,45.25
2023-03-29T03:03:31.788Z,45.77
2023-03-29T03:04:35.477Z,45.40
2023-03-29T03:05:38.799Z,45.44
2023-03-29T03:06:40.958Z,45.55
2023-03-29T03:07:43.746Z,45.59
2023-03-29T03:08:45.658Z,45.74
2023-03-29T03:09:48.992Z,45.72
2023-03-29T03:10:50.671Z,45.65
2023-03-29T03:11:53.396Z,45.78
2023-03-29T03:12:55.136Z,46.02
2023-03-29T03:13:57.831Z,45.94
2023-03-29T03:14:59.578Z,45.84
2023-03-29T03:16:03.641Z,46.03
2023-03-29T03:17:05.506Z,45.24
2023-03-29T03:18:08.220Z,46.05
2023-03-29T03:19:10.537Z,45.59
2023-03-29T03:20:14.060Z,45.97
2023-03-29T03:21:15.810Z,45.58
2023-03-29T03:22:18.496Z,45.59
2023-03-29T03:23:20.169Z,45.90
2023-03-29T03:24:23.071Z,45.95
2023-03-29T03:25:24.891Z,46.05
2023-03-29T03:26:30.199Z,45.84
2023-03-29T03:27:33.909Z,45.72
2023-03-29T03:28:36.583Z,45.47
2023-03-29T03:29:38.591Z,45.91
2023-03-29T03:30:41.490Z,45.88
2023-03-29T03:31:44.776Z,46.01
2023-03-29T03:32:47.862Z,46.00
2023-03-29T03:33:49.609Z,45.79
2023-03-29T03:34:52.281Z,45.68
2023-03-29T03:35:57.013Z,45.64
2023-03-29T03:37:01.821Z,45.65
2023-03-29T03:38:05.885Z,45.84
2023-03-29T03:39:07.590Z,45.75
2023-03-29T03:40:13.980Z,45.58
2023-03-29T03:41:16.016Z,45.55
2023-03-29T03:42:18.666Z,46.05
2023-03-29T03:43:20.623Z,46.22
2023-03-29T03:44:23.534Z,45.81
2023-03-29T03:45:25.818Z,46.09
2023-03-29T03:46:29.805Z,45.69
2023-03-29T03:47:32.974Z,45.96
2023-03-29T03:48:37.145Z,46.14
2023-03-29T03:49:38.872Z,45.79
2023-03-29T03:50:41.738Z,45.73
2023-03-29T03:51:45.385Z,45.93
2023-03-29T03:52:48.117Z,46.10
2023-03-29T03:53:50.233Z,46.11
2023-03-29T03:54:52.883Z,46.03
2023-03-29T03:55:56.029Z,45.83
2023-03-29T03:56:58.961Z,46.27
2023-03-29T03:58:00.675Z,46.15
2023-03-29T03:59:03.355Z,46.34
2023-03-29T04:00:10.159Z,45.90
2023-03-29T04:01:12.839Z,46.16
2023-03-29T04:02:15.585Z,45.99
2023-03-29T04:03:19.993Z,45.95
2023-03-29T04:04:23.045Z,46.48
2023-03-29T04:05:25.726Z,46.33
2023-03-29T04:06:30.538Z,46.21
2023-03-29T04:07:34.341Z,46.46
2023-03-29T04:08:36.156Z,45.98
2023-03-29T04:09:38.904Z,46.50
2023-03-29T04:10:40.876Z,46.41
2023-03-29T04:11:43.768Z,46.50
2023-03-29T04:12:45.615Z,46.46
2023-03-29T04:13:48.265Z,46.26
2023-03-29T04:14:49.984Z,46.23
2023-03-29T04:15:54.351Z,46.17
2023-03-29T04:16:56.171Z,46.27
2023-03-29T04:17:59.881Z,46.34
2023-03-29T04:19:03.071Z,46.88
2023-03-29T04:20:11.593Z,46.18
2023-03-29T04:21:13.490Z,46.19
2023-03-29T04:22:16.378Z,46.82
2023-03-29T04:23:19.400Z,46.82
2023-03-29T04:24:21.084Z,46.39
2023-03-29T04:25:23.894Z,46.29
2023-03-29T04:26:25.923Z,46.60
2023-03-29T04:27:28.617Z,46.66
2023-03-29T04:28:31.035Z,46.67
2023-03-29T04:29:33.700Z,46.34
2023-03-29T04:30:35.591Z,46.76
2023-03-29T04:31:38.373Z,46.77
2023-03-29T04:32:40.081Z,46.59
2023-03-29T04:33:42.935Z,46.37
2023-03-29T04:34:45.973Z,46.55
2023-03-29T04:35:48.849Z,46.74
2023-03-29T04:36:50.604Z,46.39
2023-03-29T04:37:54.560Z,46.48
2023-03-29T04:38:56.367Z,46.31
2023-03-29T04:40:00.312Z,46.92
2023-03-29T04:41:02.615Z,47.13
2023-03-29T04:42:05.953Z,47.08
2023-03-29T04:43:07.829Z,47.06
2023-03-29T04:44:10.754Z,46.87
2023-03-29T04:45:13.986Z,46.96
2023-03-29T04:46:17.036Z,47.18
2023-03-29T04:47:19.437Z,47.17
2023-03-29T04:48:22.493Z,46.69
2023-03-29T04:49:26.014Z,46.94
2023-03-29T04:50:30.870Z,47.55
2023-03-29T04:51:33.175Z,47.08
2023-03-29T04:52:36.097Z,46.95
2023-03-29T04:53:38.062Z,46.81
2023-03-29T04:54:41.092Z,47.36
2023-03-29T04:55:42.780Z,47.27
2023-03-29T04:56:45.531Z,46.88
2023-03-29T04:57:47.264Z,47.14
2023-03-29T04:58:50.894Z,47.00
2023-03-29T04:59:52.729Z,47.36
2023-03-29T05:00:56.658Z,47.11
2023-03-29T05:01:58.767Z,47.14
2023-03-29T05:03:01.636Z,47.53
2023-03-29T05:04:03.503Z,47.25
2023-03-29T05:05:06.437Z,47.12
2023-03-29T05:06:12.029Z,47.03
2023-03-29T05:07:15.593Z,47.82
2023-03-29T05:08:17.767Z,47.72
2023-03-29T05:09:21.114Z,47.31
2023-03-29T05:10:23.466Z,47.63
2023-03-29T05:11:26.248Z,47.55
2023-03-29T05:12:27.926Z,47.63
2023-03-29T05:13:30.893Z,48.11
2023-03-29T05:14:32.590Z,47.70
2023-03-29T05:15:35.377Z,48.04
2023-03-29T05:16:38.186Z,47.93
2023-03-29T05:17:41.008Z,47.94
2023-03-29T05:18:42.995Z,48.26
2023-03-29T05:19:45.952Z,47.71
2023-03-29T05:20:47.705Z,47.91
2023-03-29T05:21:53.135Z,48.06
2023-03-29T05:22:54.891Z,47.73
2023-03-29T05:23:57.674Z,48.15
2023-03-29T05:24:59.414Z,47.97
2023-03-29T05:26:02.618Z,47.99
2023-03-29T05:27:04.932Z,47.96
2023-03-29T05:28:07.576Z,47.55
2023-03-29T05:29:09.536Z,47.83
2023-03-29T05:30:13.361Z,48.17
2023-03-29T05:31:16.952Z,47.65
2023-03-29T05:32:20.059Z,47.79
2023-03-29T05:33:22.730Z,47.68
2023-03-29T05:34:25.088Z,47.42
2023-03-29T05:35:29.044Z,47.76
2023-03-29T05:36:30.960Z,47.62
2023-03-29T05:37:35.054Z,47.65
2023-03-29T05:38:38.200Z,47.72
2023-03-29T05:39:39.932Z,47.45
2023-03-29T05:40:42.782Z,47.78
2023-03-29T05:41:44.679Z,47.31
2023-03-29T05:42:47.616Z,47.92
2023-03-29T05:43:49.355Z,47.50
2023-03-29T05:44:53.425Z,47.56
2023-03-29T05:45:56.882Z,47.47
2023-03-29T05:46:59.569Z,47.16
2023-03-29T05:48:01.472Z,47.58
2023-03-29T05:49:04.248Z,47.43
2023-03-29T05:50:09.717Z,47.29
2023-03-29T05:51:12.466Z,47.13
2023-03-29T05:52:14.650Z,47.45
2023-03-29T05:53:19.496Z,47.40
2023-03-29T05:54:21.543Z,47.36
2023-03-29T05:55:24.193Z,47.31
2023-03-29T05:56:26.947Z,47.22
2023-03-29T05:57:29.906Z,47.09
2023-03-29T05:58:31.664Z,47.18
2023-03-29T05:59:34.721Z,47.09
2023-03-29T06:00:40.435Z,47.29
2023-03-29T06:01:42.735Z,47.20
2023-03-29T06:02:45.656Z,47.13
2023-03-29T06:03:47.562Z,47.02
2023-03-29T06:04:51.567Z,47.21
2023-03-29T06:05:58.612Z,46.88
2023-03-29T06:07:02.162Z,47.02
2023-03-29T06:08:05.146Z,46.96
2023-03-29T06:09:09.121Z,46.78
2023-03-29T06:10:14.021Z,46.74
2023-03-29T06:11:17.606Z,46.85
2023-03-29T06:12:20.158Z,46.82
2023-03-29T06:13:23.448Z,46.80
2023-03-29T06:14:27.203Z,47.26
2023-03-29T06:15:30.055Z,46.92
2023-03-29T06:16:32.505Z,47.45
2023-03-29T06:17:35.398Z,47.03
2023-03-29T06:18:39.719Z,47.11
2023-03-29T06:19:41.472Z,47.29
2023-03-29T06:20:44.240Z,47.22
2023-03-29T06:21:45.941Z,47.15
2023-03-29T06:22:48.869Z,47.42
2023-03-29T06:23:51.595Z,47.27
2023-03-29T06:24:54.899Z,47.36
2023-03-29T06:25:58.029Z,47.22
2023-03-29T06:26:59.910Z,47.34
2023-03-29T06:28:02.620Z,47.41
2023-03-29T06:29:04.374Z,47.20
2023-03-29T06:30:08.353Z,47.17
2023-03-29T06:31:13.156Z,47.42
2023-03-29T06:32:14.978Z,47.18
2023-03-29T06:33:18.797Z,47.13
2023-03-29T06:34:22.471Z,46.42
2023-03-29T06:35:24.235Z,46.41
2023-03-29T06:36:26.885Z,46.44
2023-03-29T06:37:30.243Z,46.42
2023-03-29T06:38:34.173Z,46.52
2023-03-29T06:39:35.831Z,46.64
2023-03-29T06:40:40.167Z,46.34
2023-03-29T06:41:43.272Z,46.54
2023-03-29T06:42:45.942Z,46.30
2023-03-29T06:43:48.631Z,46.12
2023-03-29T06:44:50.338Z,46.07
2023-03-29T06:45:53.069Z,46.11
2023-03-29T06:46:55.857Z,46.34
2023-03-29T06:47:57.609Z,46.20
2023-03-29T06:49:01.069Z,46.44
2023-03-29T06:50:04.066Z,46.23
2023-03-29T06:51:07.632Z,46.46
2023-03-29T06:52:10.237Z,46.24
2023-03-29T06:53:13.302Z,46.08
2023-03-29T06:54:14.986Z,46.08
2023-03-29T06:55:18.437Z,46.32
2023-03-29T06:56:22.291Z,46.03
2023-03-29T06:57:27.334Z,46.01
2023-03-29T06:58:29.065Z,46.03
2023-03-29T06:59:31.762Z,45.81
2023-03-29T07:00:37.229Z,45.98
2023-03-29T07:01:39.106Z,45.74
2023-03-29T07:02:42.211Z,45.79
2023-03-29T07:03:46.686Z,45.76
2023-03-29T07:04:49.697Z,45.69
2023-03-29T07:05:52.196Z,45.93
2023-03-29T07:07:01.603Z,45.87
2023-03-29T07:08:13.933Z,45.83
2023-03-29T07:09:17.712Z,45.56
2023-03-29T07:10:22.850Z,45.83
2023-03-29T07:11:26.898Z,45.82
2023-03-29T07:12:29.578Z,45.79
2023-03-29T07:13:32.986Z,45.86
2023-03-29T07:14:35.914Z,45.86
2023-03-29T07:15:37.774Z,45.76
2023-03-29T07:16:40.497Z,45.62
2023-03-29T07:17:42.428Z,45.61
2023-03-29T07:18:45.374Z,45.50
2023-03-29T07:19:48.829Z,45.38
2023-03-29T07:20:52.252Z,45.56
2023-03-29T07:21:54.320Z,45.38
2023-03-29T07:22:57.383Z,45.48
2023-03-29T07:24:00.106Z,45.58
2023-03-29T07:25:01.806Z,45.37
2023-03-29T07:26:05.706Z,45.42
2023-03-29T07:27:08.906Z,45.33
2023-03-29T07:28:11.630Z,45.17
2023-03-29T07:29:14.323Z,45.50
2023-03-29T07:30:18.401Z,45.46
2023-03-29T07:31:21.173Z,45.27
2023-03-29T07:32:24.009Z,45.20
2023-03-29T07:33:26.835Z,45.15
2023-03-29T07:34:30.022Z,45.28
2023-03-29T07:35:32.975Z,44.99
2023-03-29T07:36:34.729Z,45.17
2023-03-29T07:37:37.947Z,45.32
2023-03-29T07:38:40.672Z,45.16
2023-03-29T07:39:42.524Z,45.06
2023-03-29T07:40:45.238Z,44.83
2023-03-29T07:41:46.982Z,44.84
2023-03-29T07:42:53.056Z,44.98
2023-03-29T07:43:56.421Z,45.10
2023-03-29T07:44:58.545Z,44.89
2023-03-29T07:46:02.360Z,44.97
2023-03-29T07:47:05.511Z,45.13
2023-03-29T07:48:08.396Z,45.00
2023-03-29T07:49:11.218Z,44.81
2023-03-29T07:50:14.557Z,44.78
2023-03-29T07:51:17.386Z,44.66
2023-03-29T07:52:20.071Z,44.79
2023-03-29T07:53:23.112Z,44.96
2023-03-29T07:54:25.865Z,44.68
2023-03-29T07:55:27.636Z,44.56
2023-03-29T07:56:30.279Z,44.48
2023-03-29T07:57:32.079Z,44.19
2023-03-29T07:58:36.265Z,43.94
2023-03-29T07:59:38.980Z,43.90
2023-03-29T08:00:43.522Z,43.52
2023-03-29T08:01:46.203Z,43.94
2023-03-29T08:02:49.797Z,43.66
2023-03-29T08:03:53.165Z,43.19
2023-03-29T08:04:56.922Z,43.23
2023-03-29T08:06:02.107Z,43.44
2023-03-29T08:07:04.822Z,43.69
2023-03-29T08:08:07.888Z,43.50
2023-03-29T08:09:09.562Z,43.47
2023-03-29T08:10:15.271Z,42.82
2023-03-29T08:11:17.761Z,42.63
2023-03-29T08:12:22.052Z,42.86
2023-03-29T08:13:26.585Z,43.15
2023-03-29T08:14:29.741Z,43.36
2023-03-29T08:15:32.596Z,43.80
2023-03-29T08:16:35.363Z,44.21
2023-03-29T08:17:37.471Z,43.74
2023-03-29T08:18:40.234Z,43.89
2023-03-29T08:19:42.405Z,43.58
2023-03-29T08:20:54.029Z,43.15
2023-03-29T08:21:55.759Z,43.00
2023-03-29T08:22:58.468Z,42.85
2023-03-29T08:24:00.137Z,41.94
2023-03-29T08:25:02.902Z,42.33
2023-03-29T08:26:06.054Z,42.05
2023-03-29T08:27:07.963Z,42.06
2023-03-29T08:28:10.659Z,41.94
2023-03-29T08:29:12.441Z,42.10
2023-03-29T08:30:16.680Z,41.97
2023-03-29T08:31:18.409Z,41.83
2023-03-29T08:32:21.411Z,41.53
2023-03-29T08:33:23.221Z,41.27
2023-03-29T08:34:25.926Z,41.03
2023-03-29T08:35:28.780Z,41.23
2023-03-29T08:36:30.579Z,40.90
2023-03-29T08:37:33.336Z,41.22
2023-03-29T08:38:36.054Z,41.03
2023-03-29T08:39:37.760Z,40.83
2023-03-29T08:40:41.323Z,40.49
2023-03-29T08:41:53.310Z,40.29
2023-03-29T08:43:15.880Z,40.00
2023-03-29T08:44:24.943Z,39.83
2023-03-29T08:45:33.783Z,39.82
2023-03-29T08:46:42.300Z,39.92
2023-03-29T08:47:51.469Z,39.61
2023-03-29T08:48:56.472Z,39.64
2023-03-29T08:49:59.261Z,39.58
2023-03-29T08:51:03.867Z,39.39
2023-03-29T08:52:13.370Z,39.29
2023-03-29T08:53:18.057Z,39.38
2023-03-29T08:54:24.965Z,39.56
2023-03-29T08:55:32.055Z,39.16
2023-03-29T08:56:37.355Z,39.23
2023-03-29T08:57:42.642Z,39.48
2023-03-29T08:58:46.653Z,38.56
2023-03-29T08:59:51.686Z,38.50
2023-03-29T09:00:57.856Z,38.50
2023-03-29T09:02:00.852Z,38.92
2023-03-29T09:03:04.605Z,38.44
2023-03-29T09:04:10.167Z,38.42
2023-03-29T09:05:20.437Z,38.81
2023-03-29T09:06:23.161Z,38.74
2023-03-29T09:07:26.657Z,38.42
2023-03-29T09:08:29.526Z,38.71
2023-03-29T09:09:33.242Z,38.33
2023-03-29T09:10:40.922Z,38.46
2023-03-29T09:11:53.361Z,39.05
2023-03-29T09:13:06.727Z,38.77
2023-03-29T09:14:27.447Z,39.21
2023-03-29T09:15:33.141Z,38.78
2023-03-29T09:16:39.677Z,39.05
2023-03-29T09:17:49.917Z,39.07
2023-03-29T09:19:01.354Z,39.01
2023-03-29T09:20:12.959Z,38.99
2023-03-29T09:21:18.947Z,39.12
2023-03-29T09:22:25.331Z,38.94
2023-03-29T09:23:50.323Z,38.92
2023-03-29T09:25:00.901Z,39.05
2023-03-29T09:26:06.386Z,38.84
2023-03-29T09:27:11.380Z,38.76
2023-03-29T09:28:15.778Z,39.21
2023-03-29T09:29:30.600Z,39.18
2023-03-29T09:30:36.302Z,38.94
2023-03-29T09:31:43.962Z,39.05
2023-03-29T09:32:49.873Z,39.12
2023-03-29T09:33:57.142Z,38.70
2023-03-29T09:35:04.416Z,38.54
2023-03-29T09:36:11.802Z,38.95
2023-03-29T09:37:24.719Z,38.92
2023-03-29T09:38:27.888Z,38.81
2023-03-29T09:39:31.000Z,39.00
2023-03-29T09:40:36.012Z,38.97
2023-03-29T09:41:41.208Z,38.92
2023-03-29T09:42:45.030Z,38.78
2023-03-29T09:43:47.487Z,39.03
2023-03-29T09:44:53.094Z,39.20
2023-03-29T09:46:01.862Z,39.30
2023-03-29T09:47:10.995Z,39.26
2023-03-29T09:48:20.730Z,39.46
2023-03-29T09:49:27.460Z,39.31
2023-03-29T09:50:32.811Z,39.49
2023-03-29T09:51:34.935Z,39.71
2023-03-29T09:52:37.709Z,39.48
2023-03-29T09:53:40.463Z,39.59
2023-03-29T09:54:43.355Z,39.68
2023-03-29T09:55:46.713Z,39.47
2023-03-29T09:56:52.567Z,39.35
2023-03-29T09:57:56.097Z,39.13
2023-03-29T09:58:58.795Z,38.86
2023-03-29T10:00:05.586Z,38.83
2023-03-29T10:01:09.288Z,38.63
2023-03-29T10:02:14.727Z,38.79
2023-03-29T10:03:21.883Z,38.94
2023-03-29T10:04:27.358Z,39.02
2023-03-29T10:05:31.973Z,38.69
2023-03-29T10:06:35.462Z,38.88
2023-03-29T10:07:44.692Z,38.86
2023-03-29T10:08:48.841Z,38.77
2023-03-29T10:09:52.616Z,39.00
2023-03-29T10:10:55.865Z,38.89
2023-03-29T10:12:02.208Z,39.15
2023-03-29T10:13:06.000Z,39.14
2023-03-29T10:14:14.247Z,38.95
2023-03-29T10:15:28.699Z,39.18
2023-03-29T10:16:37.459Z,39.13
2023-03-29T10:17:43.423Z,39.39
2023-03-29T10:18:45.170Z,39.23
2023-03-29T10:19:50.041Z,39.09
2023-03-29T10:20:59.545Z,39.09
2023-03-29T10:22:04.391Z,39.12
2023-03-29T10:23:08.018Z,39.00
2023-03-29T10:24:11.463Z,39.13
2023-03-29T10:25:14.199Z,39.09
2023-03-29T10:26:25.016Z,39.12
2023-03-29T10:27:28.890Z,39.09
2023-03-29T10:28:32.043Z,38.98
2023-03-29T10:29:37.689Z,39.01
2023-03-29T10:30:40.859Z,39.06
2023-03-29T10:31:43.655Z,39.09
2023-03-29T10:32:47.209Z,38.92
2023-03-29T10:33:54.311Z,38.90
2023-03-29T10:34:59.998Z,38.95
2023-03-29T10:36:05.913Z,38.97
2023-03-29T10:37:10.411Z,38.97
2023-03-29T10:38:15.025Z,38.68
2023-03-29T10:39:17.898Z,39.02
2023-03-29T10:40:22.220Z,38.96
2023-03-29T10:41:26.072Z,39.03
2023-03-29T10:42:29.442Z,38.69
2023-03-29T10:43:36.092Z,38.76
2023-03-29T10:44:38.787Z,38.37
2023-03-29T10:45:41.390Z,38.42
2023-03-29T10:46:44.676Z,38.66
2023-03-29T10:47:49.313Z,38.28
2023-03-29T10:48:52.626Z,38.33
2023-03-29T10:49:57.299Z,38.15
2023-03-29T10:51:01.312Z,37.72
2023-03-29T10:52:08.185Z,38.18
2023-03-29T10:53:15.013Z,37.84
2023-03-29T10:54:20.975Z,37.67
2023-03-29T10:55:27.268Z,37.69
2023-03-29T10:56:40.386Z,37.47
2023-03-29T10:57:51.390Z,37.52
2023-03-29T10:59:28.142Z,37.45
2023-03-29T11:00:32.704Z,37.45
2023-03-29T11:01:40.518Z,37.13
2023-03-29T11:03:08.894Z,37.18
2023-03-29T11:04:23.035Z,36.79
2023-03-29T11:05:29.430Z,36.59
2023-03-29T11:06:36.222Z,36.34
2023-03-29T11:07:46.662Z,36.51
2023-03-29T11:08:55.659Z,36.43
2023-03-29T11:10:04.879Z,36.28
2023-03-29T11:11:16.822Z,36.65
2023-03-29T11:12:24.159Z,36.42
2023-03-29T11:13:32.082Z,35.97
2023-03-29T11:14:41.884Z,36.30
2023-03-29T11:15:51.951Z,36.08
2023-03-29T11:17:02.544Z,35.90
2023-03-29T11:18:19.478Z,35.65
2023-03-29T11:19:42.304Z,35.71
2023-03-29T11:20:46.243Z,35.63
2023-03-29T11:21:53.829Z,36.02
2023-03-29T11:23:01.105Z,36.08
2023-03-29T11:24:22.341Z,36.23
2023-03-29T11:25:32.088Z,36.31
2023-03-29T11:26:38.665Z,36.65
2023-03-29T11:27:47.428Z,36.61
2023-03-29T11:28:53.169Z,36.80
2023-03-29T11:30:06.394Z,36.76
2023-03-29T11:31:16.833Z,36.83
2023-03-29T11:32:23.375Z,36.78
2023-03-29T11:33:38.739Z,36.86
2023-03-29T11:34:52.472Z,36.78
2023-03-29T11:35:59.113Z,36.67
2023-03-29T11:37:05.858Z,36.48
2023-03-29T11:38:13.870Z,36.42
2023-03-29T11:39:23.514Z,36.26
2023-03-29T11:40:36.621Z,36.29
2023-03-29T11:41:42.429Z,36.56
2023-03-29T11:42:47.169Z,36.40
2023-03-29T11:43:54.975Z,36.48
2023-03-29T11:44:59.646Z,36.48
2023-03-29T11:46:08.697Z,36.36
2023-03-29T11:47:13.982Z,36.50
2023-03-29T11:48:21.252Z,36.42
2023-03-29T11:49:28.376Z,36.40
2023-03-29T11:50:35.325Z,36.43
2023-03-29T11:51:43.494Z,36.78
2023-03-29T11:52:51.034Z,36.55
2023-03-29T11:54:01.553Z,36.78
2023-03-29T11:55:07.488Z,36.58
2023-03-29T11:56:14.370Z,36.29
2023-03-29T11:57:22.530Z,35.88
2023-03-29T11:58:31.027Z,35.83
2023-03-29T11:59:37.219Z,35.96
2023-03-29T12:00:41.373Z,35.88
2023-03-29T12:01:47.420Z,35.82
2023-03-29T12:02:52.366Z,35.65
2023-03-29T12:03:56.985Z,35.85
2023-03-29T12:05:06.373Z,35.83
2023-03-29T12:06:13.275Z,35.74
2023-03-29T12:07:18.360Z,35.83
2023-03-29T12:08:23.503Z,35.91
2023-03-29T12:09:31.638Z,35.98
2023-03-29T12:10:36.338Z,35.91
2023-03-29T12:11:41.849Z,35.76
2023-03-29T12:12:47.183Z,35.58
2023-03-29T12:13:53.551Z,35.34
2023-03-29T12:15:02.198Z,35.46
2023-03-29T12:16:11.218Z,35.06
2023-03-29T12:17:15.655Z,35.18
2023-03-29T12:18:21.446Z,35.21
2023-03-29T12:19:27.632Z,35.37
2023-03-29T12:20:34.038Z,35.25
2023-03-29T12:21:37.627Z,35.14
2023-03-29T12:22:41.396Z,34.92
2023-03-29T12:23:44.953Z,35.11
2023-03-29T12:24:49.104Z,35.31
2023-03-29T12:26:00.569Z,35.22
2023-03-29T12:27:20.362Z,35.07
2023-03-29T12:28:42.231Z,35.09
2023-03-29T12:29:52.729Z,35.14
2023-03-29T12:30:59.347Z,35.10
2023-03-29T12:32:11.054Z,35.39
2023-03-29T12:33:31.236Z,35.11
2023-03-29T12:34:45.329Z,35.24
2023-03-29T12:35:55.422Z,35.21
2023-03-29T12:37:12.395Z,35.29
2023-03-29T12:38:19.781Z,35.73
2023-03-29T12:39:22.937Z,35.57
2023-03-29T12:40:28.556Z,35.63
2023-03-29T12:41:36.655Z,35.67
2023-03-29T12:42:45.823Z,35.50
2023-03-29T12:43:48.818Z,35.52
2023-03-29T12:44:52.891Z,35.57
2023-03-29T12:45:57.640Z,35.65
2023-03-29T12:47:01.072Z,35.70
2023-03-29T12:48:03.146Z,35.42
2023-03-29T12:49:11.968Z,35.51
2023-03-29T12:50:25.440Z,35.34
2023-03-29T12:51:32.882Z,35.41
2023-03-29T12:52:35.801Z,35.38
2023-03-29T12:53:40.903Z,35.49
2023-03-29T12:54:53.533Z,35.53
2023-03-29T12:56:10.711Z,35.75
2023-03-29T12:57:21.727Z,35.86
2023-03-29T12:58:39.069Z,35.90
2023-03-29T12:59:46.127Z,36.20
2023-03-29T13:00:50.277Z,36.33
2023-03-29T13:01:59.339Z,36.47
2023-03-29T13:03:02.963Z,36.57
2023-03-29T13:04:20.031Z,36.32
2023-03-29T13:05:31.290Z,36.19
2023-03-29T13:06:53.721Z,36.23
2023-03-29T13:07:56.977Z,36.11
2023-03-29T13:09:02.153Z,35.92
2023-03-29T13:10:09.568Z,35.73
2023-03-29T13:11:13.734Z,35.68
2023-03-29T13:12:26.745Z,35.58
2023-03-29T13:13:31.117Z,35.24
2023-03-29T13:14:35.739Z,35.33
2023-03-29T13:15:37.634Z,35.27
2023-03-29T13:16:41.594Z,35.41
2023-03-29T13:17:48.076Z,35.33
2023-03-29T13:19:06.708Z,35.07
2023-03-29T13:20:20.037Z,34.90
2023-03-29T13:21:26.878Z,35.01
2023-03-29T13:22:37.772Z,34.99
2023-03-29T13:23:47.897Z,34.83
2023-03-29T13:25:10.286Z,34.50
2023-03-29T13:26:27.386Z,34.30
2023-03-29T13:27:37.314Z,34.43
2023-03-29T13:28:47.730Z,34.59
2023-03-29T13:30:15.516Z,34.31
2023-03-29T13:31:27.054Z,34.09
2023-03-29T13:32:48.452Z,34.21
2023-03-29T13:33:58.828Z,34.32
2023-03-29T13:35:06.271Z,34.30
2023-03-29T13:36:11.959Z,34.05
2023-03-29T13:37:25.409Z,33.93
2023-03-29T13:38:32.172Z,33.70
2023-03-29T13:39:36.926Z,33.82
2023-03-29T13:40:46.587Z,33.27
2023-03-29T13:41:51.095Z,33.65
2023-03-29T13:42:59.096Z,32.97
2023-03-29T13:44:02.540Z,32.94
2023-03-29T13:45:15.606Z,33.15
2023-03-29T13:46:22.895Z,33.06
2023-03-29T13:47:54.925Z,32.91
2023-03-29T13:49:08.328Z,32.92
2023-03-29T13:50:18.908Z,32.94
2023-03-29T13:51:27.553Z,32.79
2023-03-29T13:52:32.522Z,32.81
2023-03-29T13:53:39.609Z,32.39
2023-03-29T13:54:44.514Z,32.19
2023-03-29T13:55:51.082Z,31.83
2023-03-29T13:56:59.093Z,31.93
2023-03-29T13:58:03.710Z,31.85
2023-03-29T13:59:12.709Z,31.86
2023-03-29T14:00:20.056Z,31.31